sensor_id;sensor_type;location;lat;lon;timestamp;temperature;humidity
21712;DHT22;11017;53.552;9.910;2023-08-31T00:02:21;15.30;99.90
21712;DHT22;11017;53.552;9.910;2023-08-31T00:04:51;15.30;99.90
21712;DHT22;11017;53.552;9.910;2023-08-31T00:07:18;15.10;99.90
21712;DHT22;11017;53.552;9.910;2023-08-31T00:09:44;15.20;99.90
21712;DHT22;11017;53.552;9.910;2023-08-31T00:12:11;15.20;99.90
21712;DHT22;11017;53.552;9.910;2023-08-31T00:14:38;15.30;99.90
21712;DHT22;11017;53.552;9.910;2023-08-31T00:17:06;15.30;99.90
21712;DHT22;11017;53.552;9.910;2023-08-31T00:19:33;15.30;99.90
21712;DHT22;11017;53.552;9.910;2023-08-31T00:22:01;15.20;99.90
21712;DHT22;11017;53.552;9.910;2023-08-31T00:24:27;15.00;99.90
21712;DHT22;11017;53.552;9.910;2023-08-31T00:26:57;14.90;99.90
21712;DHT22;11017;53.552;9.910;2023-08-31T00:29:24;15.00;99.90
21712;DHT22;11017;53.552;9.910;2023-08-31T00:31:51;15.10;99.90
21712;DHT22;11017;53.552;9.910;2023-08-31T00:34:20;15.20;99.90
21712;DHT22;11017;53.552;9.910;2023-08-31T00:36:47;14.90;99.90
21712;DHT22;11017;53.552;9.910;2023-08-31T00:39:14;14.90;99.90
21712;DHT22;11017;53.552;9.910;2023-08-31T00:41:46;14.90;99.90
21712;DHT22;11017;53.552;9.910;2023-08-31T00:44:13;14.80;99.90
21712;DHT22;11017;53.552;9.910;2023-08-31T00:46:40;14.60;99.90
21712;DHT22;11017;53.552;9.910;2023-08-31T00:49:08;14.60;99.90
21712;DHT22;11017;53.552;9.910;2023-08-31T00:51:37;14.70;99.90
21712;DHT22;11017;53.552;9.910;2023-08-31T00:54:04;14.80;99.90
21712;DHT22;11017;53.552;9.910;2023-08-31T00:56:31;14.90;99.90
21712;DHT22;11017;53.552;9.910;2023-08-31T00:58:59;14.90;99.90
21712;DHT22;11017;53.552;9.910;2023-08-31T01:01:32;14.70;99.90
21712;DHT22;11017;53.552;9.910;2023-08-31T01:04:11;14.70;99.90
21712;DHT22;11017;53.552;9.910;2023-08-31T01:06:51;14.60;99.90
21712;DHT22;11017;53.552;9.910;2023-08-31T01:09:25;14.60;99.90
21712;DHT22;11017;53.552;9.910;2023-08-31T01:11:59;14.60;99.90
21712;DHT22;11017;53.552;9.910;2023-08-31T01:14:32;14.50;99.90
21712;DHT22;11017;53.552;9.910;2023-08-31T01:17:01;14.50;99.90
21712;DHT22;11017;53.552;9.910;2023-08-31T01:19:48;14.40;99.90
21712;DHT22;11017;53.552;9.910;2023-08-31T01:22:21;14.40;99.90
21712;DHT22;11017;53.552;9.910;2023-08-31T01:24:53;14.50;99.90
21712;DHT22;11017;53.552;9.910;2023-08-31T01:27:20;14.50;99.90
21712;DHT22;11017;53.552;9.910;2023-08-31T01:29:47;14.50;99.90
21712;DHT22;11017;53.552;9.910;2023-08-31T01:32:14;14.50;99.90
21712;DHT22;11017;53.552;9.910;2023-08-31T01:34:41;14.40;99.90
21712;DHT22;11017;53.552;9.910;2023-08-31T01:37:12;14.40;99.90
21712;DHT22;11017;53.552;9.910;2023-08-31T01:39:45;14.50;99.90
21712;DHT22;11017;53.552;9.910;2023-08-31T01:42:16;14.30;99.90
21712;DHT22;11017;53.552;9.910;2023-08-31T01:44:44;14.10;99.90
21712;DHT22;11017;53.552;9.910;2023-08-31T01:47:15;14.00;99.90
21712;DHT22;11017;53.552;9.910;2023-08-31T01:49:44;14.00;99.90
21712;DHT22;11017;53.552;9.910;2023-08-31T01:52:11;14.00;99.90
21712;DHT22;11017;53.552;9.910;2023-08-31T01:54:38;14.00;99.90
21712;DHT22;11017;53.552;9.910;2023-08-31T01:57:05;14.00;99.90
21712;DHT22;11017;53.552;9.910;2023-08-31T01:59:34;14.10;99.90
21712;DHT22;11017;53.552;9.910;2023-08-31T02:02:01;14.10;99.90
21712;DHT22;11017;53.552;9.910;2023-08-31T02:04:29;14.20;99.90
21712;DHT22;11017;53.552;9.910;2023-08-31T02:06:56;14.20;99.90
21712;DHT22;11017;53.552;9.910;2023-08-31T02:09:23;14.20;99.90
21712;DHT22;11017;53.552;9.910;2023-08-31T02:11:50;14.20;99.90
21712;DHT22;11017;53.552;9.910;2023-08-31T02:14:17;14.30;99.90
21712;DHT22;11017;53.552;9.910;2023-08-31T02:16:45;14.20;99.90
21712;DHT22;11017;53.552;9.910;2023-08-31T02:19:12;14.20;99.90
21712;DHT22;11017;53.552;9.910;2023-08-31T02:21:39;14.20;99.90
21712;DHT22;11017;53.552;9.910;2023-08-31T02:24:06;14.30;99.90
21712;DHT22;11017;53.552;9.910;2023-08-31T02:26:34;14.30;99.90
21712;DHT22;11017;53.552;9.910;2023-08-31T02:29:01;14.20;99.90
21712;DHT22;11017;53.552;9.910;2023-08-31T02:31:28;14.10;99.90
21712;DHT22;11017;53.552;9.910;2023-08-31T02:33:57;14.10;99.90
21712;DHT22;11017;53.552;9.910;2023-08-31T02:36:23;14.00;99.90
21712;DHT22;11017;53.552;9.910;2023-08-31T02:38:50;13.90;99.90
21712;DHT22;11017;53.552;9.910;2023-08-31T02:41:18;14.00;99.90
21712;DHT22;11017;53.552;9.910;2023-08-31T02:43:45;13.80;99.90
21712;DHT22;11017;53.552;9.910;2023-08-31T02:46:12;13.80;99.90
21712;DHT22;11017;53.552;9.910;2023-08-31T02:48:39;13.80;99.90
21712;DHT22;11017;53.552;9.910;2023-08-31T02:51:07;13.70;99.90
21712;DHT22;11017;53.552;9.910;2023-08-31T02:53:34;13.70;99.90
21712;DHT22;11017;53.552;9.910;2023-08-31T02:56:01;13.50;99.90
21712;DHT22;11017;53.552;9.910;2023-08-31T02:58:29;13.60;99.90
21712;DHT22;11017;53.552;9.910;2023-08-31T03:00:59;13.60;99.90
21712;DHT22;11017;53.552;9.910;2023-08-31T03:03:32;13.50;99.90
21712;DHT22;11017;53.552;9.910;2023-08-31T03:05:59;13.60;99.90
21712;DHT22;11017;53.552;9.910;2023-08-31T03:08:27;13.40;99.90
21712;DHT22;11017;53.552;9.910;2023-08-31T03:10:56;13.30;99.90
21712;DHT22;11017;53.552;9.910;2023-08-31T03:13:23;13.20;99.90
21712;DHT22;11017;53.552;9.910;2023-08-31T03:15:50;13.30;99.90
21712;DHT22;11017;53.552;9.910;2023-08-31T03:18:17;13.30;99.90
21712;DHT22;11017;53.552;9.910;2023-08-31T03:20:43;13.30;99.90
21712;DHT22;11017;53.552;9.910;2023-08-31T03:23:10;13.30;99.90
21712;DHT22;11017;53.552;9.910;2023-08-31T03:25:39;13.40;99.90
21712;DHT22;11017;53.552;9.910;2023-08-31T03:28:05;13.30;99.90
21712;DHT22;11017;53.552;9.910;2023-08-31T03:30:32;13.30;99.90
21712;DHT22;11017;53.552;9.910;2023-08-31T03:32:59;13.30;99.90
21712;DHT22;11017;53.552;9.910;2023-08-31T03:35:26;13.20;99.90
21712;DHT22;11017;53.552;9.910;2023-08-31T03:37:54;13.10;99.90
21712;DHT22;11017;53.552;9.910;2023-08-31T03:40:21;13.00;99.90
21712;DHT22;11017;53.552;9.910;2023-08-31T03:42:51;13.00;99.90
21712;DHT22;11017;53.552;9.910;2023-08-31T03:45:19;13.10;99.90
21712;DHT22;11017;53.552;9.910;2023-08-31T03:47:46;13.00;99.90
21712;DHT22;11017;53.552;9.910;2023-08-31T03:50:13;13.00;99.90
21712;DHT22;11017;53.552;9.910;2023-08-31T03:52:40;12.90;99.90
21712;DHT22;11017;53.552;9.910;2023-08-31T03:55:07;13.10;99.90
21712;DHT22;11017;53.552;9.910;2023-08-31T03:57:34;13.20;99.90
21712;DHT22;11017;53.552;9.910;2023-08-31T04:00:03;13.20;99.90
21712;DHT22;11017;53.552;9.910;2023-08-31T04:02:34;13.10;99.90
21712;DHT22;11017;53.552;9.910;2023-08-31T04:05:01;13.10;99.90
21712;DHT22;11017;53.552;9.910;2023-08-31T04:07:30;13.10;99.90
21712;DHT22;11017;53.552;9.910;2023-08-31T04:09:58;13.10;99.90
21712;DHT22;11017;53.552;9.910;2023-08-31T04:12:25;13.10;99.90
21712;DHT22;11017;53.552;9.910;2023-08-31T04:14:52;13.00;99.90
21712;DHT22;11017;53.552;9.910;2023-08-31T04:17:20;12.90;99.90
21712;DHT22;11017;53.552;9.910;2023-08-31T04:19:47;12.90;99.90
21712;DHT22;11017;53.552;9.910;2023-08-31T04:22:14;12.80;99.90
21712;DHT22;11017;53.552;9.910;2023-08-31T04:24:41;12.60;99.90
21712;DHT22;11017;53.552;9.910;2023-08-31T04:27:07;12.60;99.90
21712;DHT22;11017;53.552;9.910;2023-08-31T04:29:34;12.80;99.90
21712;DHT22;11017;53.552;9.910;2023-08-31T04:32:01;12.60;99.90
21712;DHT22;11017;53.552;9.910;2023-08-31T04:34:32;12.80;99.90
21712;DHT22;11017;53.552;9.910;2023-08-31T04:36:59;12.80;99.90
21712;DHT22;11017;53.552;9.910;2023-08-31T04:39:26;12.70;99.90
21712;DHT22;11017;53.552;9.910;2023-08-31T04:41:53;12.60;99.90
21712;DHT22;11017;53.552;9.910;2023-08-31T04:44:20;12.70;99.90
21712;DHT22;11017;53.552;9.910;2023-08-31T04:46:48;12.90;99.90
21712;DHT22;11017;53.552;9.910;2023-08-31T04:49:16;12.90;99.90
21712;DHT22;11017;53.552;9.910;2023-08-31T04:51:45;12.70;99.90
21712;DHT22;11017;53.552;9.910;2023-08-31T04:54:14;12.70;99.90
21712;DHT22;11017;53.552;9.910;2023-08-31T04:56:40;12.40;99.90
21712;DHT22;11017;53.552;9.910;2023-08-31T04:59:07;12.50;99.90
21712;DHT22;11017;53.552;9.910;2023-08-31T05:01:34;12.70;99.90
21712;DHT22;11017;53.552;9.910;2023-08-31T05:04:02;12.80;99.90
21712;DHT22;11017;53.552;9.910;2023-08-31T05:06:29;12.80;99.90
21712;DHT22;11017;53.552;9.910;2023-08-31T05:08:58;12.80;99.90
21712;DHT22;11017;53.552;9.910;2023-08-31T05:11:25;12.90;99.90
21712;DHT22;11017;53.552;9.910;2023-08-31T05:13:53;12.90;99.90
21712;DHT22;11017;53.552;9.910;2023-08-31T05:16:20;12.80;99.90
21712;DHT22;11017;53.552;9.910;2023-08-31T05:18:48;12.90;99.90
21712;DHT22;11017;53.552;9.910;2023-08-31T05:21:15;13.00;99.90
21712;DHT22;11017;53.552;9.910;2023-08-31T05:23:42;13.00;99.90
21712;DHT22;11017;53.552;9.910;2023-08-31T05:26:10;12.90;99.90
21712;DHT22;11017;53.552;9.910;2023-08-31T05:28:37;12.90;99.90
21712;DHT22;11017;53.552;9.910;2023-08-31T05:31:04;13.00;99.90
21712;DHT22;11017;53.552;9.910;2023-08-31T05:33:31;12.60;99.90
21712;DHT22;11017;53.552;9.910;2023-08-31T05:36:01;12.60;99.90
21712;DHT22;11017;53.552;9.910;2023-08-31T05:38:29;12.80;99.90
21712;DHT22;11017;53.552;9.910;2023-08-31T05:41:04;12.70;99.90
21712;DHT22;11017;53.552;9.910;2023-08-31T05:43:33;12.80;99.90
21712;DHT22;11017;53.552;9.910;2023-08-31T05:46:00;13.00;99.90
21712;DHT22;11017;53.552;9.910;2023-08-31T05:48:27;13.00;99.90
21712;DHT22;11017;53.552;9.910;2023-08-31T05:50:54;13.00;99.90
21712;DHT22;11017;53.552;9.910;2023-08-31T05:53:21;13.00;99.90
21712;DHT22;11017;53.552;9.910;2023-08-31T05:55:48;13.10;99.90
21712;DHT22;11017;53.552;9.910;2023-08-31T05:58:15;13.10;99.90
21712;DHT22;11017;53.552;9.910;2023-08-31T06:00:43;13.00;99.90
21712;DHT22;11017;53.552;9.910;2023-08-31T06:03:10;13.10;99.90
21712;DHT22;11017;53.552;9.910;2023-08-31T06:05:37;13.20;99.90
21712;DHT22;11017;53.552;9.910;2023-08-31T06:08:05;13.20;99.90
21712;DHT22;11017;53.552;9.910;2023-08-31T06:10:32;13.30;99.90
21712;DHT22;11017;53.552;9.910;2023-08-31T06:12:59;13.30;99.90
21712;DHT22;11017;53.552;9.910;2023-08-31T06:15:28;13.50;99.90
21712;DHT22;11017;53.552;9.910;2023-08-31T06:17:57;13.50;99.90
21712;DHT22;11017;53.552;9.910;2023-08-31T06:20:24;13.50;99.90
21712;DHT22;11017;53.552;9.910;2023-08-31T06:22:50;13.50;99.90
21712;DHT22;11017;53.552;9.910;2023-08-31T06:25:17;13.60;99.90
21712;DHT22;11017;53.552;9.910;2023-08-31T06:27:45;13.70;99.90
21712;DHT22;11017;53.552;9.910;2023-08-31T06:30:12;13.60;99.90
21712;DHT22;11017;53.552;9.910;2023-08-31T06:32:42;13.70;99.90
21712;DHT22;11017;53.552;9.910;2023-08-31T06:35:10;13.80;99.90
21712;DHT22;11017;53.552;9.910;2023-08-31T06:37:37;13.80;99.90
21712;DHT22;11017;53.552;9.910;2023-08-31T06:40:05;13.80;99.90
21712;DHT22;11017;53.552;9.910;2023-08-31T06:42:34;13.80;99.90
21712;DHT22;11017;53.552;9.910;2023-08-31T07:29:21;13.90;99.90
21712;DHT22;11017;53.552;9.910;2023-08-31T07:31:48;15.70;99.90
21712;DHT22;11017;53.552;9.910;2023-08-31T07:34:15;15.80;99.90
21712;DHT22;11017;53.552;9.910;2023-08-31T07:36:42;15.90;99.90
21712;DHT22;11017;53.552;9.910;2023-08-31T07:39:09;15.80;99.90
21712;DHT22;11017;53.552;9.910;2023-08-31T07:41:36;15.20;99.90
21712;DHT22;11017;53.552;9.910;2023-08-31T07:44:05;15.40;99.90
21712;DHT22;11017;53.552;9.910;2023-08-31T07:46:32;15.60;99.90
21712;DHT22;11017;53.552;9.910;2023-08-31T07:48:59;15.60;99.90
21712;DHT22;11017;53.552;9.910;2023-08-31T07:51:26;16.00;99.90
21712;DHT22;11017;53.552;9.910;2023-08-31T07:53:53;16.40;99.90
21712;DHT22;11017;53.552;9.910;2023-08-31T07:56:21;16.40;99.90
21712;DHT22;11017;53.552;9.910;2023-08-31T07:58:49;16.20;99.90
21712;DHT22;11017;53.552;9.910;2023-08-31T08:01:18;16.10;99.90
21712;DHT22;11017;53.552;9.910;2023-08-31T08:03:45;16.00;99.90
21712;DHT22;11017;53.552;9.910;2023-08-31T08:06:12;16.20;99.90
21712;DHT22;11017;53.552;9.910;2023-08-31T08:08:39;16.30;99.90
21712;DHT22;11017;53.552;9.910;2023-08-31T08:20:57;16.00;99.90
21712;DHT22;11017;53.552;9.910;2023-08-31T08:23:24;17.10;99.90
21712;DHT22;11017;53.552;9.910;2023-08-31T08:25:50;17.00;99.90
21712;DHT22;11017;53.552;9.910;2023-08-31T08:28:17;17.00;99.90
21712;DHT22;11017;53.552;9.910;2023-08-31T08:30:44;17.20;99.90
21712;DHT22;11017;53.552;9.910;2023-08-31T08:33:11;17.70;99.90
21712;DHT22;11017;53.552;9.910;2023-08-31T08:35:39;18.00;99.90
21712;DHT22;11017;53.552;9.910;2023-08-31T08:38:06;18.10;99.90
21712;DHT22;11017;53.552;9.910;2023-08-31T08:40:32;18.30;99.90
21712;DHT22;11017;53.552;9.910;2023-08-31T08:43:00;17.90;99.90
21712;DHT22;11017;53.552;9.910;2023-08-31T08:45:34;18.50;99.90
21712;DHT22;11017;53.552;9.910;2023-08-31T08:48:03;19.00;99.90
21712;DHT22;11017;53.552;9.910;2023-08-31T08:50:31;19.00;99.90
21712;DHT22;11017;53.552;9.910;2023-08-31T08:53:00;18.70;99.90
21712;DHT22;11017;53.552;9.910;2023-08-31T08:55:27;17.70;99.90
21712;DHT22;11017;53.552;9.910;2023-08-31T08:57:55;17.40;99.90
21712;DHT22;11017;53.552;9.910;2023-08-31T09:00:22;17.50;99.90
21712;DHT22;11017;53.552;9.910;2023-08-31T09:02:49;17.20;99.90
21712;DHT22;11017;53.552;9.910;2023-08-31T09:05:16;17.60;99.90
21712;DHT22;11017;53.552;9.910;2023-08-31T09:08:06;17.90;99.90
21712;DHT22;11017;53.552;9.910;2023-08-31T09:10:36;17.80;99.90
21712;DHT22;11017;53.552;9.910;2023-08-31T09:13:06;17.40;99.90
21712;DHT22;11017;53.552;9.910;2023-08-31T09:15:39;17.30;99.90
21712;DHT22;11017;53.552;9.910;2023-08-31T09:18:06;18.90;99.90
21712;DHT22;11017;53.552;9.910;2023-08-31T09:20:43;19.10;99.90
21712;DHT22;11017;53.552;9.910;2023-08-31T09:23:12;19.50;99.90
21712;DHT22;11017;53.552;9.910;2023-08-31T09:25:41;20.20;99.90
21712;DHT22;11017;53.552;9.910;2023-08-31T09:28:09;20.10;99.90
21712;DHT22;11017;53.552;9.910;2023-08-31T09:30:36;19.30;99.90
21712;DHT22;11017;53.552;9.910;2023-08-31T09:33:04;19.00;99.90
21712;DHT22;11017;53.552;9.910;2023-08-31T09:35:31;18.30;99.90
21712;DHT22;11017;53.552;9.910;2023-08-31T09:37:58;18.10;99.90
21712;DHT22;11017;53.552;9.910;2023-08-31T09:40:26;18.00;99.90
21712;DHT22;11017;53.552;9.910;2023-08-31T09:42:53;19.80;99.90
21712;DHT22;11017;53.552;9.910;2023-08-31T09:45:26;21.80;99.90
21712;DHT22;11017;53.552;9.910;2023-08-31T09:47:56;20.80;99.90
21712;DHT22;11017;53.552;9.910;2023-08-31T09:50:24;21.60;99.90
21712;DHT22;11017;53.552;9.910;2023-08-31T10:14:38;22.20;99.90
21712;DHT22;11017;53.552;9.910;2023-08-31T10:17:05;22.00;99.90
21712;DHT22;11017;53.552;9.910;2023-08-31T10:19:32;22.50;99.90
21712;DHT22;11017;53.552;9.910;2023-08-31T10:22:01;23.80;99.90
21712;DHT22;11017;53.552;9.910;2023-08-31T10:24:57;24.20;99.90
21712;DHT22;11017;53.552;9.910;2023-08-31T10:27:25;25.80;99.90
21712;DHT22;11017;53.552;9.910;2023-08-31T10:29:52;25.70;99.90
21712;DHT22;11017;53.552;9.910;2023-08-31T10:32:19;24.90;99.90
21712;DHT22;11017;53.552;9.910;2023-08-31T10:35:03;24.30;99.90
21712;DHT22;11017;53.552;9.910;2023-08-31T10:37:30;24.30;99.90
21712;DHT22;11017;53.552;9.910;2023-08-31T10:40:09;25.00;99.90
21712;DHT22;11017;53.552;9.910;2023-08-31T10:42:44;25.40;99.90
21712;DHT22;11017;53.552;9.910;2023-08-31T10:45:12;26.30;99.90
21712;DHT22;11017;53.552;9.910;2023-08-31T10:47:40;27.20;99.90
21712;DHT22;11017;53.552;9.910;2023-08-31T10:50:21;25.70;99.90
21712;DHT22;11017;53.552;9.910;2023-08-31T10:52:48;24.30;99.90
21712;DHT22;11017;53.552;9.910;2023-08-31T10:55:16;22.80;99.90
21712;DHT22;11017;53.552;9.910;2023-08-31T10:57:43;21.20;99.90
21712;DHT22;11017;53.552;9.910;2023-08-31T11:00:11;20.70;99.90
21712;DHT22;11017;53.552;9.910;2023-08-31T11:02:42;22.40;99.90
21712;DHT22;11017;53.552;9.910;2023-08-31T11:05:10;24.10;99.90
21712;DHT22;11017;53.552;9.910;2023-08-31T11:07:38;25.90;99.90
21712;DHT22;11017;53.552;9.910;2023-08-31T11:10:11;27.40;99.90
21712;DHT22;11017;53.552;9.910;2023-08-31T11:12:40;28.30;99.30
21712;DHT22;11017;53.552;9.910;2023-08-31T11:15:10;28.20;98.00
21712;DHT22;11017;53.552;9.910;2023-08-31T11:17:37;27.60;97.30
21712;DHT22;11017;53.552;9.910;2023-08-31T11:20:06;26.90;97.20
21712;DHT22;11017;53.552;9.910;2023-08-31T11:22:38;26.20;97.30
21712;DHT22;11017;53.552;9.910;2023-08-31T11:25:07;25.00;99.40
21712;DHT22;11017;53.552;9.910;2023-08-31T11:27:35;25.10;99.80
21712;DHT22;11017;53.552;9.910;2023-08-31T11:30:10;24.60;99.90
21712;DHT22;11017;53.552;9.910;2023-08-31T11:32:44;22.90;99.90
21712;DHT22;11017;53.552;9.910;2023-08-31T11:35:10;22.90;99.90
21712;DHT22;11017;53.552;9.910;2023-08-31T11:37:37;22.60;99.90
21712;DHT22;11017;53.552;9.910;2023-08-31T11:40:05;22.40;99.90
21712;DHT22;11017;53.552;9.910;2023-08-31T11:42:32;23.70;99.90
21712;DHT22;11017;53.552;9.910;2023-08-31T11:44:59;23.50;99.90
21712;DHT22;11017;53.552;9.910;2023-08-31T11:47:27;22.60;99.90
21712;DHT22;11017;53.552;9.910;2023-08-31T11:49:54;22.10;99.90
21712;DHT22;11017;53.552;9.910;2023-08-31T11:52:21;22.50;99.90
21712;DHT22;11017;53.552;9.910;2023-08-31T11:54:52;22.60;99.90
21712;DHT22;11017;53.552;9.910;2023-08-31T11:57:19;24.40;99.90
21712;DHT22;11017;53.552;9.910;2023-08-31T11:59:51;26.20;99.90
21712;DHT22;11017;53.552;9.910;2023-08-31T12:02:19;27.60;99.90
21712;DHT22;11017;53.552;9.910;2023-08-31T12:04:48;27.30;96.10
21712;DHT22;11017;53.552;9.910;2023-08-31T12:07:16;26.20;96.40
21712;DHT22;11017;53.552;9.910;2023-08-31T12:09:44;25.30;97.70
21712;DHT22;11017;53.552;9.910;2023-08-31T12:12:11;25.30;97.50
21712;DHT22;11017;53.552;9.910;2023-08-31T12:14:40;25.20;97.50
21712;DHT22;11017;53.552;9.910;2023-08-31T12:17:07;25.90;97.80
21712;DHT22;11017;53.552;9.910;2023-08-31T12:19:36;26.00;96.30
21712;DHT22;11017;53.552;9.910;2023-08-31T12:22:05;26.40;96.20
21712;DHT22;11017;53.552;9.910;2023-08-31T12:24:38;26.30;96.30
21712;DHT22;11017;53.552;9.910;2023-08-31T12:27:06;25.70;95.50
21712;DHT22;11017;53.552;9.910;2023-08-31T12:29:32;24.80;95.40
21712;DHT22;11017;53.552;9.910;2023-08-31T12:31:59;23.30;97.40
21712;DHT22;11017;53.552;9.910;2023-08-31T12:34:26;21.70;98.90
21712;DHT22;11017;53.552;9.910;2023-08-31T12:36:53;20.80;99.90
21712;DHT22;11017;53.552;9.910;2023-08-31T12:39:26;20.30;99.90
21712;DHT22;11017;53.552;9.910;2023-08-31T12:41:53;20.00;99.90
21712;DHT22;11017;53.552;9.910;2023-08-31T12:44:20;19.40;99.90
21712;DHT22;11017;53.552;9.910;2023-08-31T12:46:47;19.00;99.90
21712;DHT22;11017;53.552;9.910;2023-08-31T12:49:14;18.80;99.90
21712;DHT22;11017;53.552;9.910;2023-08-31T12:51:41;19.10;99.90
21712;DHT22;11017;53.552;9.910;2023-08-31T12:54:08;19.80;99.90
21712;DHT22;11017;53.552;9.910;2023-08-31T12:56:36;20.40;99.90
21712;DHT22;11017;53.552;9.910;2023-08-31T12:59:03;20.60;99.90
21712;DHT22;11017;53.552;9.910;2023-08-31T13:01:31;21.10;99.90
21712;DHT22;11017;53.552;9.910;2023-08-31T13:03:58;21.10;99.90
21712;DHT22;11017;53.552;9.910;2023-08-31T13:06:25;21.40;99.90
21712;DHT22;11017;53.552;9.910;2023-08-31T13:08:52;21.90;99.90
21712;DHT22;11017;53.552;9.910;2023-08-31T13:11:19;21.60;99.90
21712;DHT22;11017;53.552;9.910;2023-08-31T13:13:50;21.20;99.90
21712;DHT22;11017;53.552;9.910;2023-08-31T13:16:18;20.80;99.90
21712;DHT22;11017;53.552;9.910;2023-08-31T13:18:44;21.20;99.90
21712;DHT22;11017;53.552;9.910;2023-08-31T13:21:11;21.00;99.90
21712;DHT22;11017;53.552;9.910;2023-08-31T13:23:38;21.30;99.90
21712;DHT22;11017;53.552;9.910;2023-08-31T13:26:08;22.00;99.90
21712;DHT22;11017;53.552;9.910;2023-08-31T13:28:35;23.20;99.90
21712;DHT22;11017;53.552;9.910;2023-08-31T13:31:03;22.20;99.90
21712;DHT22;11017;53.552;9.910;2023-08-31T13:33:30;21.90;99.90
21712;DHT22;11017;53.552;9.910;2023-08-31T13:35:58;21.50;99.90
21712;DHT22;11017;53.552;9.910;2023-08-31T13:38:26;21.90;99.90
21712;DHT22;11017;53.552;9.910;2023-08-31T13:40:54;22.30;99.90
21712;DHT22;11017;53.552;9.910;2023-08-31T13:43:22;23.40;99.90
21712;DHT22;11017;53.552;9.910;2023-08-31T13:45:49;25.00;99.90
21712;DHT22;11017;53.552;9.910;2023-08-31T13:48:17;26.30;99.50
21712;DHT22;11017;53.552;9.910;2023-08-31T13:50:46;26.10;98.80
21712;DHT22;11017;53.552;9.910;2023-08-31T13:53:13;26.80;97.90
21712;DHT22;11017;53.552;9.910;2023-08-31T13:55:40;24.80;99.00
21712;DHT22;11017;53.552;9.910;2023-08-31T13:58:08;23.40;99.90
21712;DHT22;11017;53.552;9.910;2023-08-31T14:00:35;22.90;99.90
21712;DHT22;11017;53.552;9.910;2023-08-31T14:03:03;23.30;99.90
21712;DHT22;11017;53.552;9.910;2023-08-31T14:05:32;23.50;99.90
21712;DHT22;11017;53.552;9.910;2023-08-31T14:08:00;23.70;99.90
21712;DHT22;11017;53.552;9.910;2023-08-31T14:10:30;25.10;99.90
21712;DHT22;11017;53.552;9.910;2023-08-31T14:12:58;26.10;99.90
21712;DHT22;11017;53.552;9.910;2023-08-31T14:15:25;26.70;99.70
21712;DHT22;11017;53.552;9.910;2023-08-31T14:17:52;25.70;99.00
21712;DHT22;11017;53.552;9.910;2023-08-31T14:20:19;24.30;99.90
21712;DHT22;11017;53.552;9.910;2023-08-31T14:22:49;23.70;99.90
21712;DHT22;11017;53.552;9.910;2023-08-31T14:25:16;22.40;99.90
21712;DHT22;11017;53.552;9.910;2023-08-31T14:27:43;22.40;99.90
21712;DHT22;11017;53.552;9.910;2023-08-31T14:30:10;22.90;99.90
21712;DHT22;11017;53.552;9.910;2023-08-31T14:32:37;22.60;99.90
21712;DHT22;11017;53.552;9.910;2023-08-31T14:35:05;22.80;99.90
21712;DHT22;11017;53.552;9.910;2023-08-31T14:37:32;22.80;99.90
21712;DHT22;11017;53.552;9.910;2023-08-31T14:40:01;22.10;99.90
21712;DHT22;11017;53.552;9.910;2023-08-31T14:42:28;22.20;99.90
21712;DHT22;11017;53.552;9.910;2023-08-31T14:44:55;22.00;99.90
21712;DHT22;11017;53.552;9.910;2023-08-31T14:47:22;21.90;99.90
21712;DHT22;11017;53.552;9.910;2023-08-31T14:49:48;22.00;99.90
21712;DHT22;11017;53.552;9.910;2023-08-31T14:52:15;21.10;99.90
21712;DHT22;11017;53.552;9.910;2023-08-31T14:54:42;20.80;99.90
21712;DHT22;11017;53.552;9.910;2023-08-31T14:57:10;21.10;99.90
21712;DHT22;11017;53.552;9.910;2023-08-31T14:59:37;20.80;99.90
21712;DHT22;11017;53.552;9.910;2023-08-31T15:02:05;20.50;99.90
21712;DHT22;11017;53.552;9.910;2023-08-31T15:04:32;21.10;99.90
21712;DHT22;11017;53.552;9.910;2023-08-31T15:06:59;21.70;99.90
21712;DHT22;11017;53.552;9.910;2023-08-31T15:09:26;21.30;99.90
21712;DHT22;11017;53.552;9.910;2023-08-31T15:11:53;21.30;99.90
21712;DHT22;11017;53.552;9.910;2023-08-31T15:14:21;21.00;99.90
21712;DHT22;11017;53.552;9.910;2023-08-31T15:16:48;20.80;99.90
21712;DHT22;11017;53.552;9.910;2023-08-31T15:19:15;20.40;99.90
21712;DHT22;11017;53.552;9.910;2023-08-31T15:21:42;20.50;99.90
21712;DHT22;11017;53.552;9.910;2023-08-31T15:24:09;20.00;99.90
21712;DHT22;11017;53.552;9.910;2023-08-31T15:26:36;20.00;99.90
21712;DHT22;11017;53.552;9.910;2023-08-31T15:29:03;19.80;99.90
21712;DHT22;11017;53.552;9.910;2023-08-31T15:31:32;19.70;99.90
21712;DHT22;11017;53.552;9.910;2023-08-31T15:33:58;19.90;99.90
21712;DHT22;11017;53.552;9.910;2023-08-31T15:36:25;19.70;99.90
21712;DHT22;11017;53.552;9.910;2023-08-31T15:38:52;19.60;99.90
21712;DHT22;11017;53.552;9.910;2023-08-31T15:41:19;20.00;99.90
21712;DHT22;11017;53.552;9.910;2023-08-31T15:43:46;20.20;99.90
21712;DHT22;11017;53.552;9.910;2023-08-31T15:46:13;20.00;99.90
21712;DHT22;11017;53.552;9.910;2023-08-31T15:48:43;20.10;99.90
21712;DHT22;11017;53.552;9.910;2023-08-31T15:51:10;20.50;99.90
21712;DHT22;11017;53.552;9.910;2023-08-31T15:53:37;21.50;99.90
21712;DHT22;11017;53.552;9.910;2023-08-31T15:56:04;22.10;99.90
21712;DHT22;11017;53.552;9.910;2023-08-31T15:58:31;21.40;99.90
21712;DHT22;11017;53.552;9.910;2023-08-31T16:00:58;21.70;99.90
21712;DHT22;11017;53.552;9.910;2023-08-31T16:03:28;21.30;99.90
21712;DHT22;11017;53.552;9.910;2023-08-31T16:05:57;21.60;99.90
21712;DHT22;11017;53.552;9.910;2023-08-31T16:08:25;21.30;99.90
21712;DHT22;11017;53.552;9.910;2023-08-31T16:10:52;20.80;99.90
21712;DHT22;11017;53.552;9.910;2023-08-31T16:13:19;20.70;99.90
21712;DHT22;11017;53.552;9.910;2023-08-31T16:15:47;20.70;99.90
21712;DHT22;11017;53.552;9.910;2023-08-31T16:18:15;20.50;99.90
21712;DHT22;11017;53.552;9.910;2023-08-31T16:20:43;20.70;99.90
21712;DHT22;11017;53.552;9.910;2023-08-31T16:23:11;21.50;99.90
21712;DHT22;11017;53.552;9.910;2023-08-31T16:25:38;21.70;99.90
21712;DHT22;11017;53.552;9.910;2023-08-31T16:28:05;21.20;99.90
21712;DHT22;11017;53.552;9.910;2023-08-31T16:30:33;21.00;99.90
21712;DHT22;11017;53.552;9.910;2023-08-31T16:32:59;20.70;99.90
21712;DHT22;11017;53.552;9.910;2023-08-31T16:35:26;20.20;99.90
21712;DHT22;11017;53.552;9.910;2023-08-31T16:37:54;19.60;99.90
21712;DHT22;11017;53.552;9.910;2023-08-31T16:40:22;19.50;99.90
21712;DHT22;11017;53.552;9.910;2023-08-31T16:42:49;19.20;99.90
21712;DHT22;11017;53.552;9.910;2023-08-31T16:45:16;19.10;99.90
21712;DHT22;11017;53.552;9.910;2023-08-31T16:47:46;19.00;99.90
21712;DHT22;11017;53.552;9.910;2023-08-31T16:50:29;18.70;99.90
21712;DHT22;11017;53.552;9.910;2023-08-31T16:52:56;18.70;99.90